createdAt,value
2019-04-28T06:31:15.669Z,5568.00
2019-04-28T06:32:15.631Z,5908.00
2019-04-28T06:33:15.613Z,6004.00
2019-04-28T06:34:15.597Z,5948.00
2019-04-28T06:35:15.561Z,5640.00
2019-04-28T06:36:15.539Z,5404.00
2019-04-28T06:37:15.516Z,5376.00
2019-04-28T06:38:15.494Z,5336.00
2019-04-28T06:39:24.329Z,5516.00
2019-04-28T06:40:15.450Z,5964.00
2019-04-28T06:41:15.441Z,6364.00
2019-04-28T06:42:15.406Z,6396.00
2019-04-28T06:43:15.387Z,6460.00
2019-04-28T06:44:15.385Z,6736.00
2019-04-28T06:45:15.344Z,6992.00
2019-04-28T06:46:15.321Z,6908.00
2019-04-28T06:47:16.762Z,6608.00
2019-04-28T06:48:15.310Z,6316.00
2019-04-28T06:49:15.260Z,6060.00
2019-04-28T06:50:15.254Z,5824.00
2019-04-28T06:51:15.221Z,5612.00
2019-04-28T06:52:15.204Z,5516.00
2019-04-28T07:04:35.576Z,6652.00
2019-04-28T07:05:35.532Z,6416.00
2019-04-28T07:06:35.518Z,6124.00
2019-04-28T07:07:35.487Z,5892.00
2019-04-28T07:08:35.469Z,5784.00
2019-04-28T07:09:35.479Z,5796.00
2019-04-28T07:10:35.426Z,5900.00
2019-04-28T07:11:35.406Z,6116.00
2019-04-28T07:12:35.383Z,6504.00
2019-04-28T07:22:25.378Z,7820.00
2019-04-28T07:23:25.344Z,7896.00
2019-04-28T07:24:25.321Z,8016.00
2019-04-28T07:25:25.317Z,8212.00
2019-04-28T07:26:25.279Z,8464.00
2019-04-28T07:27:25.268Z,8796.00
2019-04-28T07:28:25.239Z,9076.00
2019-04-28T07:29:25.218Z,9352.00
2019-04-28T07:30:25.214Z,9492.00
2019-04-28T07:31:25.176Z,9436.00
2019-04-28T07:32:25.157Z,9300.00
2019-04-28T07:33:35.527Z,9172.00
2019-04-28T07:34:25.119Z,9148.00
2019-04-28T07:35:25.113Z,9232.00
2019-04-28T07:36:25.078Z,9336.00
2019-04-28T07:37:25.058Z,9400.00
2019-04-28T07:38:25.038Z,9516.00
2019-04-28T07:39:25.017Z,9708.00
2019-04-28T07:40:25.012Z,9868.00
2019-04-28T07:41:24.981Z,9924.00
2019-04-28T07:42:24.963Z,10092.00
2019-04-28T07:43:24.942Z,10348.00
2019-04-28T07:44:24.927Z,10560.00
2019-04-28T07:45:24.919Z,10960.00
2019-04-28T07:46:24.887Z,11472.00
2019-04-28T07:47:24.866Z,11908.00
2019-04-28T07:48:24.849Z,12412.00
2019-04-28T07:49:24.828Z,12556.00
2019-04-28T07:50:24.823Z,12520.00
2019-04-28T07:51:24.792Z,12436.00
2019-04-28T07:52:24.772Z,12408.00
2019-04-28T07:53:24.755Z,12124.00
2019-04-28T07:54:24.740Z,11844.00
2019-04-28T07:55:24.734Z,11536.00
2019-04-28T07:56:24.698Z,11324.00
2019-04-28T07:57:24.685Z,11204.00
2019-04-28T07:58:24.663Z,11008.00
2019-04-28T07:59:24.645Z,10768.00
2019-04-28T08:00:24.642Z,10572.00
2019-04-28T08:01:24.610Z,10172.00
2019-04-28T08:02:24.593Z,9952.00
2019-04-28T08:03:24.570Z,9848.00
2019-04-28T08:04:24.552Z,9748.00
2019-04-28T08:05:24.550Z,9504.00
2019-04-28T08:06:26.917Z,9816.00
2019-04-28T08:07:24.499Z,9928.00
2019-04-28T08:08:24.480Z,10016.00
2019-04-28T08:09:24.463Z,10064.00
2019-04-28T08:10:24.459Z,10180.00
2019-04-28T08:11:24.427Z,10376.00
2019-04-28T08:12:24.409Z,10692.00
2019-04-28T08:13:24.395Z,10856.00
2019-04-28T08:14:24.378Z,10832.00
2019-04-28T08:15:24.399Z,10796.00
2019-04-28T08:16:24.340Z,10944.00
2019-04-28T08:17:24.321Z,11360.00
2019-04-28T08:18:24.307Z,11808.00
2019-04-28T08:19:24.290Z,11696.00
2019-04-28T08:20:24.270Z,11900.00
2019-04-28T08:21:24.268Z,12288.00
2019-04-28T08:22:24.234Z,12328.00
2019-04-28T08:23:24.218Z,12064.00
2019-04-28T08:24:24.207Z,12200.00
2019-04-28T08:25:24.183Z,12596.00
2019-04-28T08:26:24.182Z,12728.00
2019-04-28T08:27:24.154Z,12580.00
2019-04-28T08:28:24.135Z,12496.00
2019-04-28T08:29:24.117Z,12400.00
2019-04-28T08:30:24.101Z,12456.00
2019-04-28T08:31:24.094Z,12692.00
2019-04-28T08:32:24.064Z,12892.00
2019-04-28T08:33:24.051Z,12668.00
2019-04-28T08:34:24.030Z,12492.00
2019-04-28T08:35:24.016Z,12152.00
2019-04-28T08:36:24.014Z,11520.00
2019-04-28T08:37:23.979Z,11340.00
2019-04-28T08:38:23.962Z,11016.00
2019-04-28T08:39:26.707Z,10164.00
2019-04-28T08:40:23.928Z,9920.00
2019-04-28T08:41:23.928Z,10272.00
2019-04-28T08:42:23.896Z,10704.00
2019-04-28T08:43:23.879Z,11152.00
2019-04-28T08:44:23.863Z,11540.00
2019-04-28T08:45:23.847Z,11800.00
2019-04-28T08:46:23.844Z,12012.00
2019-04-28T08:47:23.816Z,12280.00
2019-04-28T08:48:23.795Z,12628.00
2019-04-28T08:49:23.775Z,13256.00
2019-04-28T08:50:23.762Z,13332.00
2019-04-28T08:51:23.783Z,13232.00
2019-04-28T08:52:23.728Z,13460.00
2019-04-28T08:53:23.709Z,13652.00
2019-04-28T08:54:23.695Z,13440.00
2019-04-28T08:55:23.676Z,12380.00
2019-04-28T08:56:23.723Z,11712.00
2019-04-28T08:57:23.643Z,11668.00
2019-04-28T08:58:23.627Z,12824.00
2019-04-28T08:59:23.610Z,12980.00
2019-04-28T09:00:23.593Z,12708.00
2019-04-28T09:01:23.588Z,13548.00
2019-04-28T09:02:23.560Z,15064.00
2019-04-28T09:03:23.548Z,16576.00
2019-04-28T09:04:23.528Z,17952.00
2019-04-28T09:05:23.509Z,18624.00
2019-04-28T09:06:23.511Z,17824.00
2019-04-28T09:07:23.479Z,16800.00
2019-04-28T09:08:23.460Z,16032.00
2019-04-28T09:09:23.445Z,15680.00
2019-04-28T09:10:23.428Z,14448.00
2019-04-28T09:11:23.429Z,13184.00
2019-04-28T09:12:23.396Z,11092.00
2019-04-28T09:13:23.379Z,9484.00
2019-04-28T09:14:23.362Z,8400.00
2019-04-28T09:15:23.354Z,8120.00
2019-04-28T09:16:23.352Z,8116.00
2019-04-28T09:17:23.318Z,8080.00
2019-04-28T09:18:23.297Z,8220.00
2019-04-28T09:19:23.285Z,8500.00
2019-04-28T09:20:23.269Z,8872.00
2019-04-28T09:21:23.270Z,9420.00
2019-04-28T09:22:23.234Z,9996.00
2019-04-28T09:23:23.265Z,10608.00
2019-04-28T09:24:23.200Z,11284.00
2019-04-28T09:25:23.185Z,12044.00
2019-04-28T09:26:23.187Z,12856.00
2019-04-28T09:27:23.157Z,13564.00
2019-04-28T09:28:23.142Z,14144.00
2019-04-28T09:29:23.120Z,14624.00
2019-04-28T09:30:23.105Z,14764.00
2019-04-28T09:31:23.086Z,14608.00
2019-04-28T09:32:23.083Z,14244.00
2019-04-28T09:33:23.054Z,14052.00
2019-04-28T09:34:28.389Z,13728.00
2019-04-28T09:35:23.023Z,13480.00
2019-04-28T09:36:23.021Z,13136.00
2019-04-28T09:37:22.987Z,12644.00
2019-04-28T09:38:22.974Z,12260.00
2019-04-28T09:39:23.565Z,11776.00
2019-04-28T09:40:22.937Z,11228.00
2019-04-28T09:41:22.920Z,10608.00
2019-04-28T09:42:22.918Z,10268.00
2019-04-28T09:43:22.892Z,10344.00
2019-04-28T09:44:22.870Z,10148.00
2019-04-28T09:45:22.856Z,9888.00
2019-04-28T09:46:22.838Z,10036.00
2019-04-28T09:47:22.835Z,10804.00
2019-04-28T09:48:22.804Z,11308.00
2019-04-28T09:49:22.788Z,11600.00
2019-04-28T09:50:22.774Z,12060.00
2019-04-28T09:51:22.753Z,12524.00
2019-04-28T09:52:22.751Z,12868.00
2019-04-28T09:53:22.720Z,12800.00
2019-04-28T09:54:22.703Z,13044.00
2019-04-28T09:55:22.688Z,13264.00
2019-04-28T09:56:22.714Z,13428.00
2019-04-28T09:57:22.667Z,13720.00
2019-04-28T09:58:22.637Z,13976.00
2019-04-28T09:59:22.620Z,13812.00
2019-04-28T10:00:22.607Z,13316.00
2019-04-28T10:01:22.585Z,12552.00
2019-04-28T10:02:22.586Z,11436.00
2019-04-28T10:03:25.191Z,10600.00
2019-04-28T10:15:09.805Z,5656.00
2019-04-28T10:16:09.764Z,5568.00
2019-04-28T10:17:09.760Z,5552.00
2019-04-28T10:18:09.728Z,5532.00
2019-04-28T10:19:09.711Z,5568.00
2019-04-28T10:20:09.695Z,5628.00
2019-04-28T10:25:25.123Z,8212.00
2019-04-28T10:26:25.088Z,9100.00
2019-04-28T10:27:25.081Z,9980.00
2019-04-28T10:28:25.052Z,11084.00
2019-04-28T10:29:25.032Z,12624.00
2019-04-28T10:30:25.012Z,14060.00
2019-04-28T10:31:24.995Z,13980.00
2019-04-28T10:32:24.989Z,13744.00
2019-04-28T10:33:24.958Z,12868.00
2019-04-28T10:34:24.942Z,11616.00
2019-04-28T10:35:24.926Z,10272.00
2019-04-28T10:36:24.905Z,9128.00
2019-04-28T10:37:24.902Z,8348.00
2019-04-28T10:38:24.870Z,7912.00
2019-04-28T10:39:24.852Z,7260.00
2019-04-28T10:40:24.834Z,6556.00
2019-04-28T10:54:02.720Z,5528.00
2019-04-28T10:55:02.683Z,5908.00
2019-04-28T10:56:02.662Z,6388.00
2019-04-28T10:57:02.648Z,6812.00
2019-04-28T10:58:02.641Z,7156.00
2019-04-28T10:59:02.605Z,7400.00
2019-04-28T11:00:02.588Z,7632.00
2019-04-28T11:01:02.629Z,7732.00
2019-04-28T11:02:02.546Z,7892.00
2019-04-28T11:03:02.539Z,8200.00
2019-04-28T11:04:02.510Z,8252.00
2019-04-28T11:05:08.592Z,8180.00
2019-04-28T11:10:10.732Z,8224.00
2019-04-28T11:11:10.693Z,8560.00
2019-04-28T11:12:10.675Z,8960.00
2019-04-28T11:13:10.665Z,9380.00
2019-04-28T11:14:10.639Z,9616.00
2019-04-28T11:15:10.612Z,9848.00
2019-04-28T11:16:10.592Z,10324.00
2019-04-28T11:17:10.572Z,11008.00
2019-04-28T11:18:10.573Z,12060.00
2019-04-28T11:19:10.534Z,13528.00
2019-04-28T11:20:10.516Z,14976.00
2019-04-28T11:21:10.493Z,15768.00
2019-04-28T11:22:10.474Z,15708.00
2019-04-28T11:23:10.469Z,15404.00
2019-04-28T11:24:10.435Z,15504.00
2019-04-28T11:25:10.414Z,15416.00
2019-04-28T11:26:10.394Z,15260.00
2019-04-28T11:27:10.377Z,15248.00
2019-04-28T11:28:10.371Z,15584.00
2019-04-28T11:29:10.338Z,15740.00
2019-04-28T11:30:10.319Z,15780.00
2019-04-28T11:31:10.301Z,15696.00
2019-04-28T11:32:10.284Z,15600.00
2019-04-28T11:33:10.277Z,15444.00
2019-04-28T11:34:10.242Z,15208.00
2019-04-28T11:35:20.981Z,14928.00
2019-04-28T11:36:10.213Z,14476.00
2019-04-28T11:37:10.187Z,14056.00
2019-04-28T11:38:10.190Z,13592.00
2019-04-28T11:39:10.152Z,13256.00
2019-04-28T11:40:10.131Z,13212.00
2019-04-28T11:41:11.626Z,13296.00
2019-04-28T11:42:10.095Z,13532.00
2019-04-28T11:43:10.076Z,13976.00
2019-04-28T11:44:10.079Z,14540.00
2019-04-28T11:45:10.041Z,15380.00
2019-04-28T11:46:10.025Z,16992.00
2019-04-28T11:47:10.005Z,18784.00
2019-04-28T11:48:09.986Z,20448.00
2019-04-28T11:49:09.981Z,21472.00
2019-04-28T11:50:09.950Z,22112.00
2019-04-28T11:51:09.933Z,22528.00
2019-04-28T11:52:09.917Z,22784.00
2019-04-28T11:53:09.897Z,22880.00
2019-04-28T11:54:09.896Z,22816.00
2019-04-28T11:55:09.871Z,22816.00
2019-04-28T11:56:09.843Z,23104.00
2019-04-28T11:57:09.825Z,23232.00
2019-04-28T11:58:09.810Z,23200.00
2019-04-28T11:59:09.806Z,22944.00
2019-04-28T12:00:09.771Z,22528.00
2019-04-28T12:01:09.754Z,22112.00
2019-04-28T12:02:09.739Z,21728.00
2019-04-28T12:03:09.723Z,21600.00
2019-04-28T12:04:09.719Z,21376.00
2019-04-28T12:05:09.688Z,21056.00
2019-04-28T12:06:09.670Z,20896.00
2019-04-28T12:07:09.655Z,19840.00
2019-04-28T12:08:09.637Z,18976.00
2019-04-28T12:09:09.632Z,18528.00
2019-04-28T12:10:09.603Z,17952.00
2019-04-28T12:11:09.587Z,17408.00
2019-04-28T12:12:09.568Z,16800.00
2019-04-28T12:13:09.552Z,15892.00
2019-04-28T12:14:09.550Z,15488.00
2019-04-28T12:15:09.519Z,15048.00
2019-04-28T12:16:09.500Z,14604.00
2019-04-28T12:17:09.484Z,14324.00
2019-04-28T12:18:09.468Z,14016.00
2019-04-28T12:19:09.467Z,13468.00
2019-04-28T12:20:09.441Z,12892.00
2019-04-28T12:21:09.420Z,12248.00
2019-04-28T12:22:09.403Z,11472.00
2019-04-28T12:23:09.830Z,11284.00
2019-04-28T12:24:09.390Z,11332.00
2019-04-28T12:25:09.360Z,11960.00
2019-04-28T12:26:09.340Z,12276.00
2019-04-28T12:27:09.328Z,13076.00
2019-04-28T12:28:09.306Z,12740.00
2019-04-28T12:29:09.291Z,12188.00
2019-04-28T12:30:09.295Z,11724.00
2019-04-28T12:31:09.259Z,11380.00
2019-04-28T12:32:09.245Z,11544.00
2019-04-28T12:33:09.234Z,11884.00
2019-04-28T12:34:09.220Z,11688.00
2019-04-28T12:35:09.211Z,10856.00
2019-04-28T12:36:09.183Z,10392.00
2019-04-28T12:37:09.165Z,9864.00
2019-04-28T12:38:09.147Z,10020.00
2019-04-28T12:39:09.133Z,10064.00
2019-04-28T12:40:09.135Z,10180.00
2019-04-28T12:41:09.100Z,10288.00
2019-04-28T12:42:09.090Z,10440.00
2019-04-28T12:43:09.069Z,10552.00
2019-04-28T12:44:09.055Z,10772.00
2019-04-28T12:45:09.053Z,11164.00
2019-04-28T12:46:09.024Z,11652.00
2019-04-28T12:47:09.009Z,12196.00
2019-04-28T12:48:08.995Z,12664.00
2019-04-28T12:49:08.978Z,13016.00
2019-04-28T12:50:08.977Z,13232.00
2019-04-28T12:51:08.946Z,13328.00
2019-04-28T12:52:08.933Z,13368.00
2019-04-28T12:53:08.923Z,13672.00
2019-04-28T12:54:08.901Z,13816.00
2019-04-28T12:55:08.906Z,14064.00
2019-04-28T12:56:08.872Z,14508.00
2019-04-28T12:57:08.866Z,15168.00
2019-04-28T12:58:08.845Z,15900.00
2019-04-28T12:59:08.835Z,15856.00
2019-04-28T13:00:08.831Z,12940.00
2019-04-28T13:01:08.800Z,13708.00
2019-04-28T13:02:08.789Z,12968.00
2019-04-28T13:03:08.777Z,11964.00
2019-04-28T13:04:08.761Z,11596.00
2019-04-28T13:05:08.764Z,10972.00
2019-04-28T13:06:08.736Z,10424.00
2019-04-28T13:07:08.721Z,9996.00
2019-04-28T13:08:08.708Z,9524.00
2019-04-28T13:09:08.693Z,9476.00
2019-04-28T13:10:08.694Z,9576.00
2019-04-28T13:11:08.667Z,9468.00
2019-04-28T13:12:08.650Z,9396.00
2019-04-28T13:13:08.638Z,9532.00
2019-04-28T13:14:08.619Z,9848.00
2019-04-28T13:15:08.623Z,10152.00
2019-04-28T13:16:08.589Z,10416.00
2019-04-28T13:17:08.588Z,10936.00
2019-04-28T13:18:08.564Z,11900.00
2019-04-28T13:19:08.542Z,12936.00
2019-04-28T13:20:08.527Z,13928.00
2019-04-28T13:21:08.528Z,14988.00
2019-04-28T13:22:08.502Z,16320.00
2019-04-28T13:23:08.480Z,19488.00
2019-04-28T13:24:08.469Z,22240.00
2019-04-28T13:25:08.460Z,20704.00
2019-04-28T13:26:08.449Z,20544.00
2019-04-28T13:27:10.260Z,20160.00
2019-04-28T13:28:08.414Z,19424.00
2019-04-28T13:29:08.388Z,18816.00
2019-04-28T13:30:08.372Z,18176.00
2019-04-28T13:31:08.374Z,17824.00
2019-04-28T13:32:08.339Z,17824.00
2019-04-28T13:33:08.349Z,17760.00
2019-04-28T13:34:08.334Z,17472.00
2019-04-28T13:35:08.305Z,16992.00
2019-04-28T13:36:14.730Z,16312.00
2019-04-28T13:37:08.266Z,15648.00
2019-04-28T13:38:08.272Z,14980.00
2019-04-28T13:39:08.236Z,14416.00
2019-04-28T13:40:08.216Z,14008.00
2019-04-28T13:41:08.216Z,13816.00
2019-04-28T13:42:08.192Z,13676.00
2019-04-28T13:43:08.165Z,13592.00
2019-04-28T13:44:08.154Z,13584.00
2019-04-28T13:45:08.151Z,13520.00
2019-04-28T13:46:08.176Z,13500.00
2019-04-28T13:47:08.105Z,13516.00
2019-04-28T13:48:08.129Z,13632.00
2019-04-28T13:49:08.079Z,13912.00
2019-04-28T13:50:08.091Z,14300.00
2019-04-28T13:51:08.063Z,14736.00
2019-04-28T13:52:08.048Z,15120.00
2019-04-28T13:53:08.101Z,15624.00
2019-04-28T13:54:08.028Z,16288.00
2019-04-28T13:55:07.976Z,17088.00
2019-04-28T13:56:07.985Z,18208.00
2019-04-28T13:57:07.976Z,20704.00
2019-04-28T13:58:07.952Z,30784.00
2019-04-28T13:59:07.975Z,55328.00
2019-04-28T14:00:07.905Z,157344.00
2019-04-28T14:01:07.903Z,156224.00
2019-04-28T14:02:07.866Z,115040.00
2019-04-28T14:03:07.873Z,158112.00
2019-04-28T14:04:07.879Z,158240.00
2019-04-28T14:05:07.833Z,154944.00
2019-04-28T14:06:07.808Z,119488.00
2019-04-28T14:07:07.811Z,102304.00
2019-04-28T14:08:07.792Z,51904.00
2019-04-28T14:09:07.773Z,46368.00
2019-04-28T14:10:07.760Z,105376.00
2019-04-28T14:11:07.743Z,72160.00
2019-04-28T14:12:07.755Z,106336.00
2019-04-28T14:13:07.728Z,126048.00
2019-04-28T14:14:07.702Z,110080.00
2019-04-28T14:15:07.743Z,19360.00
2019-04-28T14:16:07.688Z,19808.00
2019-04-28T14:17:07.682Z,21152.00
2019-04-28T14:18:07.717Z,21600.00
2019-04-28T14:19:07.640Z,21472.00
2019-04-28T14:20:07.645Z,23232.00
2019-04-28T14:21:08.008Z,34592.00
2019-04-28T14:22:07.628Z,24192.00
2019-04-28T14:23:07.618Z,20576.00
2019-04-28T14:24:07.626Z,18272.00
2019-04-28T14:25:07.625Z,17728.00
2019-04-28T14:26:07.628Z,17984.00
2019-04-28T14:27:07.657Z,18592.00
2019-04-28T14:28:07.544Z,20128.00
2019-04-28T14:29:07.657Z,21792.00
2019-04-28T14:30:07.532Z,26112.00
2019-04-28T14:31:07.512Z,33312.00
2019-04-28T14:32:07.542Z,46528.00
2019-04-28T14:33:07.503Z,124096.00
2019-04-28T14:34:07.494Z,34048.00
2019-04-28T14:35:07.466Z,19840.00
2019-04-28T14:36:07.496Z,18528.00
2019-04-28T14:37:07.463Z,18816.00
2019-04-28T14:38:07.487Z,19296.00
2019-04-28T14:39:07.416Z,19392.00
2019-04-28T14:40:07.397Z,19008.00
2019-04-28T14:41:07.388Z,18464.00
2019-04-28T14:42:07.376Z,18240.00
2019-04-28T14:43:07.365Z,17952.00
2019-04-28T14:44:07.343Z,16708.00
2019-04-28T14:45:07.328Z,15088.00
2019-04-28T14:46:07.310Z,13876.00
2019-04-28T14:47:07.288Z,13064.00
2019-04-28T14:48:07.306Z,12520.00
2019-04-28T14:49:07.380Z,12580.00
2019-04-28T14:50:07.258Z,13624.00
2019-04-28T14:51:07.241Z,15980.00
2019-04-28T14:52:07.261Z,18784.00
2019-04-28T14:53:08.770Z,19680.00
2019-04-28T14:54:07.220Z,17664.00
2019-04-28T14:55:07.230Z,15628.00
2019-04-28T14:56:07.630Z,14044.00
2019-04-28T14:57:07.215Z,12880.00
2019-04-28T14:58:07.132Z,12036.00
2019-04-28T14:59:07.129Z,11496.00
2019-04-28T15:00:07.120Z,11380.00
2019-04-28T15:01:07.180Z,11512.00
2019-04-28T15:02:07.171Z,11656.00
2019-04-28T15:03:07.058Z,11180.00
2019-04-28T15:04:07.076Z,10228.00
2019-04-28T15:05:07.043Z,9392.00
2019-04-28T15:06:07.027Z,8716.00
2019-04-28T15:07:07.046Z,8080.00
2019-04-28T15:08:07.051Z,7772.00
2019-04-28T15:09:07.054Z,7552.00
2019-04-28T15:10:07.043Z,7264.00
2019-04-28T15:11:06.978Z,6980.00
2019-04-28T15:12:06.969Z,6704.00
2019-04-28T15:13:07.000Z,6344.00
2019-04-28T15:14:06.905Z,5868.00
2019-04-28T15:15:06.910Z,5540.00
2019-04-28T15:16:06.869Z,5376.00
2019-04-28T15:17:06.863Z,5228.00
2019-04-28T15:18:06.874Z,5128.00
2019-04-28T15:19:06.823Z,5060.00
2019-04-28T15:20:06.888Z,4956.00
2019-04-28T15:21:06.882Z,4760.00
2019-04-28T15:22:06.770Z,4564.00
2019-04-28T15:23:06.761Z,4424.00
2019-04-28T15:24:06.730Z,4328.00
2019-04-28T15:25:06.718Z,4252.00
2019-04-28T15:26:06.745Z,4220.00
2019-04-28T15:27:06.689Z,4244.00
2019-04-28T15:28:06.679Z,4316.00
2019-04-28T15:29:06.730Z,4420.00
2019-04-28T15:30:06.650Z,4464.00
2019-04-28T15:31:06.624Z,4464.00
2019-04-28T15:32:06.619Z,4432.00
2019-04-28T15:33:06.604Z,4408.00
2019-04-28T15:34:06.568Z,4408.00
2019-04-28T15:35:06.555Z,4436.00
2019-04-28T15:36:06.531Z,4528.00
2019-04-28T15:37:09.899Z,4644.00
2019-04-28T15:38:06.507Z,4804.00
2019-04-28T15:39:06.488Z,4968.00
2019-04-28T15:40:06.471Z,5168.00
2019-04-28T15:41:06.448Z,5392.00
2019-04-28T15:42:06.447Z,5624.00
2019-04-28T15:43:06.433Z,5944.00
2019-04-28T15:44:06.406Z,6352.00
2019-04-28T15:45:06.387Z,6872.00
2019-04-28T15:46:06.362Z,7436.00
2019-04-28T15:47:06.376Z,8052.00
2019-04-28T15:48:06.360Z,8620.00
2019-04-28T15:49:06.321Z,9312.00
2019-04-28T15:50:06.315Z,10152.00
2019-04-28T15:51:06.296Z,11136.00
2019-04-28T15:52:06.354Z,12232.00
2019-04-28T15:53:06.256Z,13684.00
2019-04-28T15:54:06.226Z,15732.00
2019-04-28T15:55:06.278Z,19904.00
2019-04-28T15:56:06.190Z,19872.00
2019-04-28T15:57:06.191Z,21248.00
2019-04-28T15:58:06.155Z,30016.00
2019-04-28T15:59:06.127Z,48000.00
2019-04-28T16:00:06.118Z,59616.00
2019-04-28T16:01:06.102Z,66496.00
2019-04-28T16:02:06.094Z,63968.00
2019-04-28T16:03:06.066Z,64640.00
2019-04-28T16:04:06.043Z,61312.00
2019-04-28T16:05:06.030Z,60736.00
2019-04-28T16:06:06.016Z,59968.00
2019-04-28T16:07:06.014Z,58016.00
2019-04-28T16:08:05.988Z,56640.00
2019-04-28T16:09:05.974Z,54368.00
2019-04-28T16:10:05.959Z,53088.00
2019-04-28T16:11:05.947Z,49792.00
2019-04-28T16:12:05.948Z,48480.00
2019-04-28T16:13:05.925Z,47744.00
2019-04-28T16:14:05.912Z,47552.00
2019-04-28T16:15:07.453Z,48544.00
2019-04-28T16:16:05.927Z,47328.00
2019-04-28T16:17:05.893Z,45600.00
2019-04-28T16:18:05.894Z,45920.00
2019-04-28T16:19:05.878Z,45952.00
2019-04-28T16:20:05.849Z,43840.00
2019-04-28T16:21:05.838Z,40512.00
2019-04-28T16:22:05.846Z,42400.00
2019-04-28T16:23:05.823Z,31360.00
2019-04-28T16:24:05.818Z,18080.00
2019-04-28T16:25:05.803Z,27488.00
2019-04-28T16:26:05.793Z,43712.00
2019-04-28T16:27:05.803Z,42144.00
2019-04-28T16:28:05.775Z,13536.00
2019-04-28T16:29:05.764Z,14860.00
2019-04-28T16:30:05.760Z,12128.00
2019-04-28T16:31:05.747Z,11388.00
2019-04-28T16:32:05.754Z,10432.00
2019-04-28T16:33:05.727Z,9744.00
2019-04-28T16:34:05.714Z,9180.00
2019-04-28T16:35:05.705Z,8540.00
2019-04-28T16:36:05.694Z,8016.00
2019-04-28T16:37:05.683Z,7600.00
2019-04-28T16:38:05.685Z,7432.00
2019-04-28T16:39:05.660Z,7324.00
2019-04-28T16:40:09.173Z,7348.00
2019-04-28T16:41:05.631Z,7172.00
2019-04-28T16:42:05.623Z,7144.00
2019-04-28T16:43:05.629Z,7324.00
2019-04-28T16:44:05.603Z,7584.00
2019-04-28T16:45:05.589Z,7688.00
2019-04-28T16:46:05.564Z,7892.00
2019-04-28T16:47:05.555Z,8048.00
2019-04-28T16:48:05.550Z,8004.00
2019-04-28T16:49:05.518Z,7844.00
2019-04-28T16:50:05.504Z,7956.00
2019-04-28T16:51:05.488Z,8208.00
2019-04-28T16:52:05.472Z,8752.00
2019-04-28T16:53:05.474Z,9476.00
2019-04-28T16:54:05.443Z,10152.00
2019-04-28T16:55:05.430Z,10484.00
2019-04-28T16:56:05.414Z,11600.00
2019-04-28T16:57:05.408Z,18944.00
2019-04-28T16:58:05.399Z,22528.00
2019-04-28T16:59:05.369Z,18976.00
2019-04-28T17:00:05.352Z,11044.00
2019-04-28T17:01:05.336Z,8872.00
2019-04-28T17:02:05.336Z,8744.00
2019-04-28T17:03:05.324Z,7872.00
2019-04-28T17:04:05.289Z,17664.00
2019-04-28T17:05:05.286Z,23456.00
2019-04-28T17:06:05.268Z,23040.00
2019-04-28T17:07:05.244Z,24096.00
2019-04-28T17:08:05.245Z,23904.00
2019-04-28T17:09:05.246Z,24608.00
2019-04-28T17:10:05.199Z,25920.00
2019-04-28T17:11:05.186Z,25792.00
2019-04-28T17:12:05.173Z,24544.00
2019-04-28T17:13:05.206Z,19264.00
2019-04-28T17:14:05.146Z,17792.00
2019-04-28T17:15:05.142Z,15360.00
2019-04-28T17:16:05.124Z,23104.00
2019-04-28T17:17:05.111Z,23360.00
2019-04-28T17:18:05.113Z,21696.00
2019-04-28T17:19:05.085Z,20736.00
2019-04-28T17:20:05.078Z,19744.00
2019-04-28T17:21:05.080Z,18816.00
2019-04-28T17:22:05.060Z,18464.00
2019-04-28T17:23:05.095Z,17952.00
2019-04-28T17:24:05.035Z,17472.00
2019-04-28T17:25:05.022Z,16896.00
2019-04-28T17:26:05.012Z,16288.00
2019-04-28T17:27:05.012Z,15840.00
2019-04-28T17:28:05.011Z,15616.00
2019-04-28T17:29:04.987Z,14976.00
2019-04-28T17:30:04.979Z,14176.00
2019-04-28T17:31:04.974Z,12832.00
2019-04-28T17:32:04.963Z,11904.00
2019-04-28T17:33:04.972Z,11948.00
2019-04-28T17:34:04.967Z,12288.00
2019-04-28T17:35:04.979Z,12800.00
2019-04-28T17:36:04.923Z,12736.00
2019-04-28T17:37:04.913Z,12480.00
2019-04-28T17:38:06.789Z,12256.00
2019-04-28T17:39:06.482Z,10972.00
2019-04-28T17:40:04.958Z,8596.00
2019-04-28T17:41:04.879Z,7540.00
2019-04-28T17:42:04.868Z,7664.00
2019-04-28T17:43:04.855Z,7756.00
2019-04-28T17:44:04.865Z,8280.00
2019-04-28T17:45:04.838Z,9028.00
2019-04-28T17:46:04.824Z,9236.00
2019-04-28T17:47:04.816Z,8172.00
2019-04-28T17:48:04.816Z,6896.00
2019-04-28T17:49:04.816Z,5856.00
2019-04-28T17:50:04.777Z,5616.00
2019-04-28T17:51:04.781Z,5716.00
2019-04-28T17:52:04.761Z,5096.00
2019-04-28T17:53:04.742Z,4652.00
2019-04-28T17:54:04.756Z,4732.00
2019-04-28T17:55:04.723Z,4492.00
2019-04-28T17:56:04.716Z,3980.00
2019-04-28T17:57:04.698Z,3540.00
2019-04-28T17:58:04.678Z,3160.00
2019-04-28T17:59:04.682Z,2904.00
2019-04-28T18:00:04.651Z,2772.00
2019-04-28T18:01:04.637Z,2716.00
2019-04-28T18:02:04.655Z,2668.00
2019-04-28T18:03:04.677Z,2596.00
2019-04-28T18:04:04.633Z,2528.00
2019-04-28T18:05:04.601Z,2464.00
2019-04-28T18:06:17.103Z,2408.00
2019-04-28T18:07:04.578Z,2324.00
2019-04-28T18:08:04.537Z,2208.00
2019-04-28T18:09:04.522Z,2088.00
2019-04-28T18:10:04.522Z,1992.00
2019-04-28T18:11:04.494Z,1920.00
2019-04-28T18:12:04.475Z,1864.00
2019-04-28T18:13:04.465Z,1836.00
2019-04-28T18:14:04.452Z,1824.00
2019-04-28T18:15:04.446Z,1800.00
2019-04-28T18:16:04.411Z,1772.00
2019-04-28T18:17:04.398Z,1724.00
2019-04-28T18:18:04.381Z,1660.00
2019-04-28T18:19:04.369Z,1604.00
2019-04-28T18:20:04.362Z,1544.00
2019-04-28T18:21:04.334Z,1480.00
2019-04-28T18:22:04.316Z,1396.00
2019-04-28T18:23:04.298Z,1324.00
2019-04-28T18:24:04.282Z,1256.00
2019-04-28T18:25:04.279Z,1200.00
2019-04-28T18:26:04.267Z,1140.00
2019-04-28T18:27:04.230Z,1080.00
2019-04-28T18:28:04.217Z,1024.00
2019-04-28T18:29:04.200Z,968.00
2019-04-28T18:30:04.196Z,908.00
2019-04-28T18:31:04.166Z,856.00
2019-04-28T18:32:04.145Z,804.00
2019-04-28T18:33:04.127Z,756.00
2019-04-28T18:34:04.110Z,712.00
2019-04-28T18:35:04.108Z,672.00
2019-04-28T18:36:04.077Z,632.00
2019-04-28T18:37:04.065Z,596.00
2019-04-28T18:38:04.043Z,560.00
2019-04-28T18:39:04.027Z,516.00
2019-04-28T18:40:04.023Z,480.00
2019-04-28T18:41:03.991Z,440.00
2019-04-28T18:42:03.969Z,408.00
2019-04-28T18:43:03.953Z,376.00
2019-04-28T18:44:03.938Z,348.00
2019-04-28T18:45:03.927Z,320.00
2019-04-28T18:46:03.897Z,292.00
2019-04-28T18:47:03.880Z,268.00
2019-04-28T18:48:03.859Z,248.00
2019-04-28T18:49:03.845Z,224.00
2019-04-28T18:50:03.842Z,208.00
2019-04-28T18:51:03.807Z,184.00
2019-04-28T18:52:03.785Z,168.00
2019-04-28T18:53:03.772Z,152.00
2019-04-28T18:54:03.750Z,136.00
2019-04-28T18:55:03.733Z,124.00
2019-04-28T18:56:03.728Z,112.00
2019-04-28T18:57:03.694Z,96.00
2019-04-28T18:58:03.680Z,84.00
2019-04-28T18:59:03.661Z,76.00
2019-04-28T19:00:03.639Z,64.00
2019-04-28T19:01:03.632Z,60.00
2019-04-28T19:02:03.600Z,52.00
2019-04-28T19:03:03.582Z,44.00
2019-04-28T19:04:03.566Z,36.00
2019-04-28T19:05:03.545Z,32.00
2019-04-28T19:06:03.545Z,24.00
2019-04-28T19:07:05.259Z,24.00
2019-04-28T19:08:03.489Z,20.00
2019-04-28T19:09:03.472Z,16.00
2019-04-28T19:10:03.451Z,16.00
2019-04-28T19:11:03.445Z,12.00
2019-04-28T19:12:03.420Z,12.00
2019-04-28T19:13:03.392Z,12.00
2019-04-28T19:14:03.380Z,8.00
2019-04-28T19:15:03.354Z,8.00
2019-04-28T19:16:03.355Z,4.00
2019-04-28T19:17:03.318Z,8.00